sensor_id;sensor_type;location;lat;lon;timestamp;pressure;altitude;pressure_sealevel;temperature;humidity
74270;BME280;62754;48.252;11.654;2022-11-20T00:01:06;95575.53;;;5.23;85.13
74270;BME280;62754;48.252;11.654;2022-11-20T00:03:32;95585.97;;;5.20;85.02
74270;BME280;62754;48.252;11.654;2022-11-20T00:06:02;95589.22;;;5.35;84.58
74270;BME280;62754;48.252;11.654;2022-11-20T00:08:27;95589.13;;;5.24;84.44
74270;BME280;62754;48.252;11.654;2022-11-20T00:10:53;95592.38;;;5.26;85.17
74270;BME280;62754;48.252;11.654;2022-11-20T00:13:19;95591.38;;;5.28;84.24
74270;BME280;62754;48.252;11.654;2022-11-20T00:15:45;95589.31;;;5.34;85.05
74270;BME280;62754;48.252;11.654;2022-11-20T00:18:10;95598.81;;;5.44;83.73
74270;BME280;62754;48.252;11.654;2022-11-20T00:20:36;95595.53;;;5.42;83.64
74270;BME280;62754;48.252;11.654;2022-11-20T00:23:02;95597.56;;;5.50;83.67
74270;BME280;62754;48.252;11.654;2022-11-20T00:25:27;95601.78;;;5.25;84.75
74270;BME280;62754;48.252;11.654;2022-11-20T00:27:53;95592.38;;;5.26;84.22
74270;BME280;62754;48.252;11.654;2022-11-20T00:30:19;95597.78;;;5.21;83.48
74270;BME280;62754;48.252;11.654;2022-11-20T00:32:45;95598.63;;;5.35;83.86
74270;BME280;62754;48.252;11.654;2022-11-20T00:35:10;95600.66;;;5.29;83.68
74270;BME280;62754;48.252;11.654;2022-11-20T00:37:36;95607.81;;;5.24;84.74
74270;BME280;62754;48.252;11.654;2022-11-20T00:40:02;95607.00;;;5.24;85.50
74270;BME280;62754;48.252;11.654;2022-11-20T00:42:28;95600.34;;;5.21;85.04
74270;BME280;62754;48.252;11.654;2022-11-20T00:44:54;95607.09;;;5.22;85.68
74270;BME280;62754;48.252;11.654;2022-11-20T00:47:19;95606.47;;;5.19;85.18
74270;BME280;62754;48.252;11.654;2022-11-20T00:49:45;95594.44;;;5.21;85.54
74270;BME280;62754;48.252;11.654;2022-11-20T00:52:11;95604.13;;;5.16;84.87
74270;BME280;62754;48.252;11.654;2022-11-20T00:54:37;95605.66;;;5.18;85.82
74270;BME280;62754;48.252;11.654;2022-11-20T00:57:02;95604.44;;;5.11;86.38
74270;BME280;62754;48.252;11.654;2022-11-20T00:59:28;95603.91;;;5.06;86.22
74270;BME280;62754;48.252;11.654;2022-11-20T01:01:54;95602.72;;;5.12;86.40
74270;BME280;62754;48.252;11.654;2022-11-20T01:04:20;95611.69;;;5.05;85.99
74270;BME280;62754;48.252;11.654;2022-11-20T01:06:45;95613.84;;;5.11;85.86
74270;BME280;62754;48.252;11.654;2022-11-20T01:09:13;95617.50;;;5.07;87.01
74270;BME280;62754;48.252;11.654;2022-11-20T01:11:43;95619.34;;;5.05;86.32
74270;BME280;62754;48.252;11.654;2022-11-20T01:14:15;95619.16;;;5.08;86.29
74270;BME280;62754;48.252;11.654;2022-11-20T01:16:44;95625.25;;;4.93;86.85
74270;BME280;62754;48.252;11.654;2022-11-20T01:19:13;95624.34;;;5.06;86.37
74270;BME280;62754;48.252;11.654;2022-11-20T01:21:41;95615.88;;;5.06;85.86
74270;BME280;62754;48.252;11.654;2022-11-20T01:24:10;95625.78;;;4.98;85.38
74270;BME280;62754;48.252;11.654;2022-11-20T01:26:38;95617.59;;;4.93;85.52
74270;BME280;62754;48.252;11.654;2022-11-20T01:29:05;95627.31;;;5.13;86.44
74270;BME280;62754;48.252;11.654;2022-11-20T01:31:33;95627.41;;;4.99;85.65
74270;BME280;62754;48.252;11.654;2022-11-20T01:34:02;95631.50;;;5.01;86.04
74270;BME280;62754;48.252;11.654;2022-11-20T01:36:29;95626.59;;;5.11;85.46
74270;BME280;62754;48.252;11.654;2022-11-20T01:38:57;95633.56;;;5.09;84.40
74270;BME280;62754;48.252;11.654;2022-11-20T01:41:28;95622.13;;;5.02;85.41
74270;BME280;62754;48.252;11.654;2022-11-20T01:43:54;95627.53;;;4.97;85.73
74270;BME280;62754;48.252;11.654;2022-11-20T01:46:20;95628.66;;;5.06;85.32
74270;BME280;62754;48.252;11.654;2022-11-20T01:49:02;95625.88;;;4.96;85.77
74270;BME280;62754;48.252;11.654;2022-11-20T01:51:53;95635.38;;;5.07;85.20
74270;BME280;62754;48.252;11.654;2022-11-20T01:54:22;95629.66;;;5.03;85.53
74270;BME280;62754;48.252;11.654;2022-11-20T01:56:51;95630.19;;;5.08;84.45
74270;BME280;62754;48.252;11.654;2022-11-20T01:59:19;95627.41;;;5.11;84.25
74270;BME280;62754;48.252;11.654;2022-11-20T02:01:46;95624.34;;;5.06;83.91
74270;BME280;62754;48.252;11.654;2022-11-20T02:04:13;95625.06;;;5.08;84.64
74270;BME280;62754;48.252;11.654;2022-11-20T02:06:46;95629.66;;;5.03;84.28
74270;BME280;62754;48.252;11.654;2022-11-20T02:09:14;95634.84;;;4.89;84.06
74270;BME280;62754;48.252;11.654;2022-11-20T02:11:40;95632.19;;;4.91;84.09
74270;BME280;62754;48.252;11.654;2022-11-20T02:14:06;95627.41;;;4.99;84.28
74270;BME280;62754;48.252;11.654;2022-11-20T02:16:41;95626.56;;;4.98;84.20
74270;BME280;62754;48.252;11.654;2022-11-20T02:19:16;95632.00;;;5.06;83.52
74270;BME280;62754;48.252;11.654;2022-11-20T02:24:43;95627.31;;;5.13;83.74
74270;BME280;62754;48.252;11.654;2022-11-20T02:27:15;95633.13;;;5.15;83.64
74270;BME280;62754;48.252;11.654;2022-11-20T02:29:57;95637.94;;;5.19;83.20
74270;BME280;62754;48.252;11.654;2022-11-20T02:32:41;95633.25;;;5.13;83.28
74270;BME280;62754;48.252;11.654;2022-11-20T02:37:57;95629.97;;;5.11;83.71
74270;BME280;62754;48.252;11.654;2022-11-20T02:40:23;95631.91;;;5.08;83.48
74270;BME280;62754;48.252;11.654;2022-11-20T02:42:56;95637.13;;;5.19;82.74
74270;BME280;62754;48.252;11.654;2022-11-20T02:45:22;95627.31;;;5.25;82.38
74270;BME280;62754;48.252;11.654;2022-11-20T02:47:49;95624.25;;;5.33;81.60
74270;BME280;62754;48.252;11.654;2022-11-20T02:50:15;95628.34;;;5.23;81.85
74270;BME280;62754;48.252;11.654;2022-11-20T02:52:41;95628.13;;;5.26;82.20
74270;BME280;62754;48.252;11.654;2022-11-20T02:55:07;95627.63;;;5.34;81.54
74270;BME280;62754;48.252;11.654;2022-11-20T02:57:33;95626.50;;;5.12;82.21
74270;BME280;62754;48.252;11.654;2022-11-20T02:59:59;95623.16;;;5.24;82.50
74270;BME280;62754;48.252;11.654;2022-11-20T03:02:24;95628.66;;;5.31;81.52
74270;BME280;62754;48.252;11.654;2022-11-20T03:04:50;95628.34;;;5.23;81.50
74270;BME280;62754;48.252;11.654;2022-11-20T03:07:16;95625.78;;;5.23;81.43
74270;BME280;62754;48.252;11.654;2022-11-20T03:09:42;95624.75;;;5.25;81.34
74270;BME280;62754;48.252;11.654;2022-11-20T03:12:07;95622.72;;;5.31;81.24
74270;BME280;62754;48.252;11.654;2022-11-20T03:14:34;95623.25;;;5.23;81.27
74270;BME280;62754;48.252;11.654;2022-11-20T03:17:00;95614.13;;;5.06;81.86
74270;BME280;62754;48.252;11.654;2022-11-20T03:19:25;95621.72;;;5.20;81.95
74270;BME280;62754;48.252;11.654;2022-11-20T03:21:51;95616.81;;;5.05;82.09
74270;BME280;62754;48.252;11.654;2022-11-20T03:24:17;95613.53;;;5.15;81.03
74270;BME280;62754;48.252;11.654;2022-11-20T03:26:43;95619.66;;;5.25;81.11
74270;BME280;62754;48.252;11.654;2022-11-20T03:29:08;95622.81;;;5.29;81.20
74270;BME280;62754;48.252;11.654;2022-11-20T03:31:36;95622.22;;;5.13;80.34
74270;BME280;62754;48.252;11.654;2022-11-20T03:34:03;95621.59;;;5.22;80.74
74270;BME280;62754;48.252;11.654;2022-11-20T03:36:29;95620.06;;;5.19;80.44
74270;BME280;62754;48.252;11.654;2022-11-20T03:38:56;95619.56;;;5.14;80.38
74270;BME280;62754;48.252;11.654;2022-11-20T03:41:27;95628.25;;;5.12;80.63
74270;BME280;62754;48.252;11.654;2022-11-20T03:43:57;95622.84;;;5.16;80.88
74270;BME280;62754;48.252;11.654;2022-11-20T03:46:23;95629.38;;;5.20;80.18
74270;BME280;62754;48.252;11.654;2022-11-20T03:48:50;95629.06;;;5.25;79.54
74270;BME280;62754;48.252;11.654;2022-11-20T03:51:21;95605.88;;;5.28;79.29
74270;BME280;62754;48.252;11.654;2022-11-20T03:53:49;95623.97;;;5.25;79.66
74270;BME280;62754;48.252;11.654;2022-11-20T03:56:18;95617.81;;;5.15;80.06
74270;BME280;62754;48.252;11.654;2022-11-20T03:58:44;95624.16;;;5.09;80.16
74270;BME280;62754;48.252;11.654;2022-11-20T04:01:13;95622.09;;;5.14;79.86
74270;BME280;62754;48.252;11.654;2022-11-20T04:03:40;95626.59;;;5.11;79.13
74270;BME280;62754;48.252;11.654;2022-11-20T04:06:11;95628.16;;;5.13;78.98
74270;BME280;62754;48.252;11.654;2022-11-20T04:08:38;95633.34;;;5.12;79.67
74270;BME280;62754;48.252;11.654;2022-11-20T04:13:36;95639.56;;;5.08;80.14
74270;BME280;62754;48.252;11.654;2022-11-20T04:16:01;95635.91;;;5.12;78.81
74270;BME280;62754;48.252;11.654;2022-11-20T04:18:27;95630.91;;;5.23;79.18
74270;BME280;62754;48.252;11.654;2022-11-20T04:20:53;95632.63;;;5.10;79.32
74270;BME280;62754;48.252;11.654;2022-11-20T04:23:19;95636.44;;;5.17;79.97
74270;BME280;62754;48.252;11.654;2022-11-20T04:25:44;95634.78;;;5.16;79.26
74270;BME280;62754;48.252;11.654;2022-11-20T04:28:10;95635.91;;;5.24;78.92
74270;BME280;62754;48.252;11.654;2022-11-20T04:30:36;95631.94;;;5.20;78.69
74270;BME280;62754;48.252;11.654;2022-11-20T04:33:02;95637.53;;;5.13;79.01
74270;BME280;62754;48.252;11.654;2022-11-20T04:35:27;95631.69;;;5.11;78.28
74270;BME280;62754;48.252;11.654;2022-11-20T04:37:53;95638.03;;;5.18;77.87
74270;BME280;62754;48.252;11.654;2022-11-20T04:40:19;95631.63;;;5.25;78.38
74270;BME280;62754;48.252;11.654;2022-11-20T04:42:45;95634.47;;;5.20;77.80
74270;BME280;62754;48.252;11.654;2022-11-20T04:45:10;95635.09;;;5.24;77.54
74270;BME280;62754;48.252;11.654;2022-11-20T04:47:36;95630.78;;;5.12;77.98
74270;BME280;62754;48.252;11.654;2022-11-20T04:50:02;95626.41;;;5.01;77.57
74270;BME280;62754;48.252;11.654;2022-11-20T04:52:28;95636.59;;;5.14;78.53
74270;BME280;62754;48.252;11.654;2022-11-20T04:54:53;95631.09;;;5.07;78.01
74270;BME280;62754;48.252;11.654;2022-11-20T04:57:19;95632.31;;;5.14;78.32
74270;BME280;62754;48.252;11.654;2022-11-20T04:59:45;95633.44;;;5.10;78.62
74270;BME280;62754;48.252;11.654;2022-11-20T05:02:11;95634.16;;;5.12;78.15
74270;BME280;62754;48.252;11.654;2022-11-20T05:04:36;95634.38;;;5.09;78.59
74270;BME280;62754;48.252;11.654;2022-11-20T05:07:02;95632.63;;;5.10;78.56
74270;BME280;62754;48.252;11.654;2022-11-20T05:09:28;95634.38;;;5.09;78.22
74270;BME280;62754;48.252;11.654;2022-11-20T05:11:54;95637.03;;;5.08;78.55
74270;BME280;62754;48.252;11.654;2022-11-20T05:14:19;95634.47;;;5.08;78.79
74270;BME280;62754;48.252;11.654;2022-11-20T05:16:45;95631.81;;;4.97;78.43
74270;BME280;62754;48.252;11.654;2022-11-20T05:19:11;95635.88;;;4.99;79.21
74270;BME280;62754;48.252;11.654;2022-11-20T05:21:37;95637.59;;;4.99;78.92
74270;BME280;62754;48.252;11.654;2022-11-20T05:24:02;95633.03;;;5.04;78.15
74270;BME280;62754;48.252;11.654;2022-11-20T05:26:28;95637.84;;;5.08;78.21
74270;BME280;62754;48.252;11.654;2022-11-20T05:28:54;95636.72;;;5.12;77.92
74270;BME280;62754;48.252;11.654;2022-11-20T05:31:22;95638.06;;;5.05;77.68
74270;BME280;62754;48.252;11.654;2022-11-20T05:33:48;95629.16;;;5.11;77.74
74270;BME280;62754;48.252;11.654;2022-11-20T05:36:15;95628.22;;;4.99;78.02
74270;BME280;62754;48.252;11.654;2022-11-20T05:38:41;95633.31;;;4.99;78.28
74270;BME280;62754;48.252;11.654;2022-11-20T05:41:08;95631.00;;;5.09;78.05
74270;BME280;62754;48.252;11.654;2022-11-20T05:43:36;95628.66;;;5.06;78.50
74270;BME280;62754;48.252;11.654;2022-11-20T05:46:03;95620.25;;;5.04;78.13
74270;BME280;62754;48.252;11.654;2022-11-20T05:48:30;95633.53;;;4.96;78.35
74270;BME280;62754;48.252;11.654;2022-11-20T05:50:59;95633.03;;;5.04;77.48
74270;BME280;62754;48.252;11.654;2022-11-20T05:53:25;95624.25;;;5.08;78.03
74270;BME280;62754;48.252;11.654;2022-11-20T05:56:02;95636.00;;;5.10;77.21
74270;BME280;62754;48.252;11.654;2022-11-20T05:58:29;95636.50;;;5.15;76.65
74270;BME280;62754;48.252;11.654;2022-11-20T06:00:55;95638.84;;;5.18;77.03
74270;BME280;62754;48.252;11.654;2022-11-20T06:03:28;95633.97;;;5.15;76.81
74270;BME280;62754;48.252;11.654;2022-11-20T06:05:53;95635.38;;;5.07;77.12
74270;BME280;62754;48.252;11.654;2022-11-20T06:08:19;95635.66;;;5.02;77.41
74270;BME280;62754;48.252;11.654;2022-11-20T06:10:45;95638.84;;;4.93;77.28
74270;BME280;62754;48.252;11.654;2022-11-20T06:13:10;95635.69;;;4.90;77.13
74270;BME280;62754;48.252;11.654;2022-11-20T06:15:36;95638.94;;;4.92;77.69
74270;BME280;62754;48.252;11.654;2022-11-20T06:18:02;95642.31;;;4.92;77.41
74270;BME280;62754;48.252;11.654;2022-11-20T06:20:28;95639.34;;;4.86;78.04
74270;BME280;62754;48.252;11.654;2022-11-20T06:22:53;95642.09;;;4.83;77.51
74270;BME280;62754;48.252;11.654;2022-11-20T06:25:19;95644.00;;;4.79;77.51
74270;BME280;62754;48.252;11.654;2022-11-20T06:27:45;95646.38;;;4.82;77.75
74270;BME280;62754;48.252;11.654;2022-11-20T06:30:11;95646.44;;;4.68;77.71
74270;BME280;62754;48.252;11.654;2022-11-20T06:32:37;95645.59;;;4.67;77.75
74270;BME280;62754;48.252;11.654;2022-11-20T06:35:03;95639.38;;;4.71;77.57
74270;BME280;62754;48.252;11.654;2022-11-20T06:37:29;95652.16;;;4.71;77.65
74270;BME280;62754;48.252;11.654;2022-11-20T06:39:55;95649.81;;;4.68;78.85
74270;BME280;62754;48.252;11.654;2022-11-20T06:42:20;95648.41;;;4.77;77.64
74270;BME280;62754;48.252;11.654;2022-11-20T06:44:46;95652.31;;;4.83;77.35
74270;BME280;62754;48.252;11.654;2022-11-20T06:47:15;95652.81;;;4.88;76.47
74270;BME280;62754;48.252;11.654;2022-11-20T06:49:40;95650.78;;;4.93;76.66
74270;BME280;62754;48.252;11.654;2022-11-20T06:52:06;95652.09;;;4.86;76.97
74270;BME280;62754;48.252;11.654;2022-11-20T06:54:32;95656.28;;;4.87;75.97
74270;BME280;62754;48.252;11.654;2022-11-20T06:56:57;95667.75;;;4.94;76.18
74270;BME280;62754;48.252;11.654;2022-11-20T06:59:23;95676.94;;;4.96;76.04
74270;BME280;62754;48.252;11.654;2022-11-20T07:01:49;95676.03;;;4.97;75.70
74270;BME280;62754;48.252;11.654;2022-11-20T07:04:15;95675.41;;;5.06;76.10
74270;BME280;62754;48.252;11.654;2022-11-20T07:06:40;95668.16;;;5.00;75.83
74270;BME280;62754;48.252;11.654;2022-11-20T07:09:06;95680.63;;;5.05;75.56
74270;BME280;62754;48.252;11.654;2022-11-20T07:11:32;95680.50;;;4.94;75.85
74270;BME280;62754;48.252;11.654;2022-11-20T07:13:57;95675.56;;;4.91;75.34
74270;BME280;62754;48.252;11.654;2022-11-20T07:16:23;95678.66;;;4.96;74.44
74270;BME280;62754;48.252;11.654;2022-11-20T07:18:49;95689.94;;;5.06;74.69
74270;BME280;62754;48.252;11.654;2022-11-20T07:21:15;95681.03;;;5.11;74.86
74270;BME280;62754;48.252;11.654;2022-11-20T07:23:40;95677.16;;;5.06;74.03
74270;BME280;62754;48.252;11.654;2022-11-20T07:26:08;95683.28;;;5.16;74.47
74270;BME280;62754;48.252;11.654;2022-11-20T07:28:34;95688.00;;;5.22;73.54
74270;BME280;62754;48.252;11.654;2022-11-20T07:31:00;95682.72;;;5.25;73.15
74270;BME280;62754;48.252;11.654;2022-11-20T07:33:26;95683.63;;;5.24;72.79
74270;BME280;62754;48.252;11.654;2022-11-20T07:35:52;95689.72;;;5.21;73.15
74270;BME280;62754;48.252;11.654;2022-11-20T07:38:18;95685.34;;;5.23;73.67
74270;BME280;62754;48.252;11.654;2022-11-20T07:40:43;95684.53;;;5.36;73.35
74270;BME280;62754;48.252;11.654;2022-11-20T07:43:09;95687.72;;;5.39;72.39
74270;BME280;62754;48.252;11.654;2022-11-20T07:45:35;95692.63;;;5.55;72.40
74270;BME280;62754;48.252;11.654;2022-11-20T07:48:01;95693.25;;;5.58;72.18
74270;BME280;62754;48.252;11.654;2022-11-20T07:50:26;95687.72;;;5.39;72.02
74270;BME280;62754;48.252;11.654;2022-11-20T07:53:00;95689.56;;;5.50;72.86
74270;BME280;62754;48.252;11.654;2022-11-20T07:55:26;95688.13;;;5.58;73.52
74270;BME280;62754;48.252;11.654;2022-11-20T07:57:55;95692.81;;;5.64;72.24
74270;BME280;62754;48.252;11.654;2022-11-20T08:00:21;95691.09;;;5.65;72.44
74270;BME280;62754;48.252;11.654;2022-11-20T08:02:47;95693.75;;;5.63;71.87
74270;BME280;62754;48.252;11.654;2022-11-20T08:05:12;95695.06;;;5.69;71.84
74270;BME280;62754;48.252;11.654;2022-11-20T08:07:39;95697.31;;;5.73;72.04
74270;BME280;62754;48.252;11.654;2022-11-20T08:10:05;95692.72;;;5.79;72.19
74270;BME280;62754;48.252;11.654;2022-11-20T08:12:31;95694.56;;;5.76;71.67
74270;BME280;62754;48.252;11.654;2022-11-20T08:14:57;95695.09;;;5.94;71.98
74270;BME280;62754;48.252;11.654;2022-11-20T08:17:23;95696.69;;;6.08;71.05
74270;BME280;62754;48.252;11.654;2022-11-20T08:19:48;95705.88;;;6.10;71.07
74270;BME280;62754;48.252;11.654;2022-11-20T08:22:14;95701.00;;;5.95;70.90
74270;BME280;62754;48.252;11.654;2022-11-20T08:24:40;95698.66;;;6.04;71.13
74270;BME280;62754;48.252;11.654;2022-11-20T08:27:06;95702.31;;;6.13;70.24
74270;BME280;62754;48.252;11.654;2022-11-20T08:29:31;95705.50;;;6.04;71.19
74270;BME280;62754;48.252;11.654;2022-11-20T08:31:57;95696.50;;;5.86;72.44
74270;BME280;62754;48.252;11.654;2022-11-20T08:34:23;95694.94;;;5.83;71.64
74270;BME280;62754;48.252;11.654;2022-11-20T08:36:49;95694.78;;;5.86;71.44
74270;BME280;62754;48.252;11.654;2022-11-20T08:39:14;95694.50;;;5.91;72.50
74270;BME280;62754;48.252;11.654;2022-11-20T08:41:40;95693.53;;;5.92;71.45
74270;BME280;62754;48.252;11.654;2022-11-20T08:44:07;95698.19;;;5.87;71.33
74270;BME280;62754;48.252;11.654;2022-11-20T08:46:40;95695.06;;;6.07;71.27
74270;BME280;62754;48.252;11.654;2022-11-20T08:49:08;95698.88;;;6.01;70.54
74270;BME280;62754;48.252;11.654;2022-11-20T08:51:35;95693.84;;;6.00;70.41
74270;BME280;62754;48.252;11.654;2022-11-20T08:54:02;95705.19;;;5.96;71.37
74270;BME280;62754;48.252;11.654;2022-11-20T08:56:27;95706.53;;;6.01;70.72
74270;BME280;62754;48.252;11.654;2022-11-20T08:58:53;95702.53;;;6.10;71.09
74270;BME280;62754;48.252;11.654;2022-11-20T09:01:20;95704.28;;;6.09;70.76
74270;BME280;62754;48.252;11.654;2022-11-20T09:03:46;95699.25;;;6.08;70.38
74270;BME280;62754;48.252;11.654;2022-11-20T09:06:13;95699.75;;;6.13;69.64
74270;BME280;62754;48.252;11.654;2022-11-20T09:08:39;95698.84;;;6.14;69.55
74270;BME280;62754;48.252;11.654;2022-11-20T09:11:05;95699.94;;;6.22;69.52
74270;BME280;62754;48.252;11.654;2022-11-20T09:13:32;95696.91;;;6.17;69.60
74270;BME280;62754;48.252;11.654;2022-11-20T09:16:00;95696.16;;;6.28;69.06
74270;BME280;62754;48.252;11.654;2022-11-20T09:18:27;95697.91;;;6.15;69.80
74270;BME280;62754;48.252;11.654;2022-11-20T09:20:57;95700.06;;;6.21;69.60
74270;BME280;62754;48.252;11.654;2022-11-20T09:23:23;95695.13;;;6.18;69.34
74270;BME280;62754;48.252;11.654;2022-11-20T09:25:50;95700.47;;;6.15;69.07
74270;BME280;62754;48.252;11.654;2022-11-20T09:28:15;95687.03;;;6.37;68.50
74270;BME280;62754;48.252;11.654;2022-11-20T09:30:41;95692.19;;;6.48;68.02
74270;BME280;62754;48.252;11.654;2022-11-20T09:33:07;95684.72;;;6.68;68.23
74270;BME280;62754;48.252;11.654;2022-11-20T09:35:33;95694.88;;;6.70;67.25
74270;BME280;62754;48.252;11.654;2022-11-20T09:38:04;95687.16;;;6.83;66.86
74270;BME280;62754;48.252;11.654;2022-11-20T09:40:30;95685.88;;;6.88;66.67
74270;BME280;62754;48.252;11.654;2022-11-20T09:48:42;95685.72;;;7.02;66.05
74270;BME280;62754;48.252;11.654;2022-11-20T09:51:46;95678.50;;;6.84;66.01
74270;BME280;62754;48.252;11.654;2022-11-20T09:54:14;95682.38;;;6.89;66.60
74270;BME280;62754;48.252;11.654;2022-11-20T09:56:45;95673.66;;;6.92;66.38
74270;BME280;62754;48.252;11.654;2022-11-20T09:59:32;95676.44;;;6.89;67.41
74270;BME280;62754;48.252;11.654;2022-11-20T10:02:01;95672.75;;;6.93;66.68
74270;BME280;62754;48.252;11.654;2022-11-20T10:04:31;95666.69;;;6.94;67.21
74270;BME280;62754;48.252;11.654;2022-11-20T10:07:20;95675.88;;;6.96;66.11
74270;BME280;62754;48.252;11.654;2022-11-20T10:09:53;95666.78;;;6.92;65.72
74270;BME280;62754;48.252;11.654;2022-11-20T10:25:41;95664.06;;;7.63;66.26
74270;BME280;62754;48.252;11.654;2022-11-20T10:28:17;95663.66;;;7.46;65.17
74270;BME280;62754;48.252;11.654;2022-11-20T10:30:59;95660.28;;;7.34;66.17
74270;BME280;62754;48.252;11.654;2022-11-20T10:33:27;95662.41;;;7.74;65.92
74270;BME280;62754;48.252;11.654;2022-11-20T10:38:48;95663.13;;;7.76;67.39
74270;BME280;62754;48.252;11.654;2022-11-20T10:41:24;95657.28;;;7.96;65.10
74270;BME280;62754;48.252;11.654;2022-11-20T10:44:05;95658.47;;;8.03;64.50
74270;BME280;62754;48.252;11.654;2022-11-20T10:46:44;95652.06;;;7.86;63.92
74270;BME280;62754;48.252;11.654;2022-11-20T10:49:15;95648.16;;;8.25;62.33
74270;BME280;62754;48.252;11.654;2022-11-20T10:54:57;95658.69;;;9.29;60.92
74270;BME280;62754;48.252;11.654;2022-11-20T10:57:35;95652.38;;;9.42;59.03
74270;BME280;62754;48.252;11.654;2022-11-20T11:00:09;95652.41;;;9.22;61.46
74270;BME280;62754;48.252;11.654;2022-11-20T11:02:41;95648.03;;;8.81;61.13
74270;BME280;62754;48.252;11.654;2022-11-20T11:05:20;95646.78;;;8.96;61.96
74270;BME280;62754;48.252;11.654;2022-11-20T11:07:54;95640.06;;;8.63;61.17
74270;BME280;62754;48.252;11.654;2022-11-20T11:10:37;95643.69;;;8.60;62.07
74270;BME280;62754;48.252;11.654;2022-11-20T11:13:05;95642.97;;;8.58;60.15
74270;BME280;62754;48.252;11.654;2022-11-20T11:15:40;95646.63;;;8.77;61.67
74270;BME280;62754;48.252;11.654;2022-11-20T11:18:10;95643.56;;;8.62;61.79
74270;BME280;62754;48.252;11.654;2022-11-20T11:20:37;95636.66;;;8.63;61.95
74270;BME280;62754;48.252;11.654;2022-11-20T11:23:03;95637.69;;;9.03;61.52
74270;BME280;62754;48.252;11.654;2022-11-20T11:25:36;95623.25;;;8.91;60.29
74270;BME280;62754;48.252;11.654;2022-11-20T11:28:21;95644.25;;;8.64;60.67
74270;BME280;62754;48.252;11.654;2022-11-20T11:30:47;95617.28;;;8.38;59.75
74270;BME280;62754;48.252;11.654;2022-11-20T11:33:22;95604.22;;;8.19;63.57
74270;BME280;62754;48.252;11.654;2022-11-20T11:35:52;95628.69;;;8.23;63.18
74270;BME280;62754;48.252;11.654;2022-11-20T11:38:41;95605.31;;;7.94;62.46
74270;BME280;62754;48.252;11.654;2022-11-20T11:41:34;95618.22;;;7.92;62.23
74270;BME280;62754;48.252;11.654;2022-11-20T11:44:02;95617.19;;;8.06;63.57
74270;BME280;62754;48.252;11.654;2022-11-20T11:46:39;95622.06;;;8.09;62.85
74270;BME280;62754;48.252;11.654;2022-11-20T11:51:41;95615.22;;;7.98;62.79
74270;BME280;62754;48.252;11.654;2022-11-20T11:54:19;95610.31;;;8.06;62.77
74270;BME280;62754;48.252;11.654;2022-11-20T11:56:48;95624.81;;;8.82;60.30
74270;BME280;62754;48.252;11.654;2022-11-20T11:59:22;95607.41;;;9.06;60.50
74270;BME280;62754;48.252;11.654;2022-11-20T12:01:54;95615.66;;;8.69;58.72
74270;BME280;62754;48.252;11.654;2022-11-20T12:06:58;95617.75;;;8.64;59.75
74270;BME280;62754;48.252;11.654;2022-11-20T12:09:35;95621.28;;;9.04;58.04
74270;BME280;62754;48.252;11.654;2022-11-20T12:12:12;95619.03;;;8.90;59.19
74270;BME280;62754;48.252;11.654;2022-11-20T12:14:46;95633.47;;;8.38;60.41
74270;BME280;62754;48.252;11.654;2022-11-20T12:17:14;95628.84;;;8.10;63.80
74270;BME280;62754;48.252;11.654;2022-11-20T12:19:40;95630.72;;;7.63;67.45
74270;BME280;62754;48.252;11.654;2022-11-20T12:30:17;95613.31;;;7.34;68.14
74270;BME280;62754;48.252;11.654;2022-11-20T12:33:03;95621.41;;;7.51;67.56
74270;BME280;62754;48.252;11.654;2022-11-20T12:43:28;95601.94;;;7.82;66.08
74270;BME280;62754;48.252;11.654;2022-11-20T12:46:22;95613.59;;;7.64;68.69
74270;BME280;62754;48.252;11.654;2022-11-20T12:51:47;95613.13;;;7.59;67.75
74270;BME280;62754;48.252;11.654;2022-11-20T12:54:46;95608.09;;;7.35;67.88
74270;BME280;62754;48.252;11.654;2022-11-20T12:57:17;95607.41;;;7.22;69.33
74270;BME280;62754;48.252;11.654;2022-11-20T13:05:21;95609.22;;;6.98;69.80
74270;BME280;62754;48.252;11.654;2022-11-20T13:07:52;95602.13;;;7.12;70.17
74270;BME280;62754;48.252;11.654;2022-11-20T13:12:58;95601.31;;;7.23;69.00
74270;BME280;62754;48.252;11.654;2022-11-20T13:17:58;95600.81;;;6.96;69.49
74270;BME280;62754;48.252;11.654;2022-11-20T13:20:25;95603.81;;;6.90;71.05
74270;BME280;62754;48.252;11.654;2022-11-20T13:22:55;95601.94;;;6.81;70.19
74270;BME280;62754;48.252;11.654;2022-11-20T13:27:48;95596.13;;;6.79;71.33
74270;BME280;62754;48.252;11.654;2022-11-20T13:30:16;95598.34;;;6.48;70.66
74270;BME280;62754;48.252;11.654;2022-11-20T13:33:21;95599.31;;;6.58;71.70
74270;BME280;62754;48.252;11.654;2022-11-20T13:35:59;95599.06;;;6.61;71.54
74270;BME280;62754;48.252;11.654;2022-11-20T13:38:25;95591.13;;;6.53;71.80
74270;BME280;62754;48.252;11.654;2022-11-20T13:41:00;95592.00;;;6.41;71.51
74270;BME280;62754;48.252;11.654;2022-11-20T13:45:57;95588.03;;;6.37;72.09
74270;BME280;62754;48.252;11.654;2022-11-20T13:48:25;95584.81;;;6.46;71.59
74270;BME280;62754;48.252;11.654;2022-11-20T13:53:36;95585.28;;;6.40;72.28
74270;BME280;62754;48.252;11.654;2022-11-20T14:01:34;95592.78;;;6.31;73.63
74270;BME280;62754;48.252;11.654;2022-11-20T14:04:06;95584.09;;;6.33;73.19
74270;BME280;62754;48.252;11.654;2022-11-20T14:06:39;95592.56;;;6.34;72.91
74270;BME280;62754;48.252;11.654;2022-11-20T14:09:11;95590.59;;;6.37;73.07
74270;BME280;62754;48.252;11.654;2022-11-20T14:11:46;95586.88;;;6.41;73.53
74270;BME280;62754;48.252;11.654;2022-11-20T14:14:17;95591.63;;;6.35;72.84
74270;BME280;62754;48.252;11.654;2022-11-20T14:16:43;95587.97;;;6.26;73.48
74270;BME280;62754;48.252;11.654;2022-11-20T14:21:48;95595.19;;;6.45;73.38
74270;BME280;62754;48.252;11.654;2022-11-20T14:24:20;95600.63;;;6.40;73.70
74270;BME280;62754;48.252;11.654;2022-11-20T14:26:47;95594.41;;;6.32;73.22
74270;BME280;62754;48.252;11.654;2022-11-20T14:29:14;95593.66;;;6.42;72.97
74270;BME280;62754;48.252;11.654;2022-11-20T14:31:42;95599.75;;;6.29;73.90